Detall de PIREP

Printer-friendly versionPDF version

[2014/10/29 09:33:00]
Flight IATA:CT1005
Pilot Number:011
Company ICAO:CAT
Aircraft Type:B738/F
PAX:160
Departing Airport: LJLJ
Destination Airport: LEMG
Alternate Airport:GMTT
Online: VATSIM
Route:RIFEN UM196 LAGEN UM859 VAMTU UM984 DIVKO UN975 BCN UM985 VIBAS
Flight Level:F390
No Slew and time accel
No pause
Crash detect
Detect pilot in Cockpit between each 30 and 45 minutes
09:33 Zero fuel Weight: 135240 Lbs, Fuel Weight: 24574 Lbs
09:33 VATSIM:LJLJ 290900Z VRB02KT 9999 FEW007 BKN110 03/02 Q1022 NOSIG
09:33 VATSIM:LEMG 290900Z VRB01KT 9999 BKN025 20/18 Q1018 NOSIG
09:35 Parking Brakes off
09:46 Take-off
09:46 Take off Weight: 158932 Lbs
09:46 Wind: 029º @ 004 Knots Heading: 125º
09:46 POS N46º 13´ 27´´ E014º 27´ 22´´
09:46 Gear Up: 156 Knots
09:46 Flaps:5 at 156 Knots
09:47 Flaps:4 at 200 Knots
09:47 Flaps:3 at 204 Knots
09:47 Flaps:2 at 225 Knots
09:47 Flaps:1 at 227 Knots
09:50 Flaps:0 at 242 Knots
10:01 Wind:054º@036 Knots Heading: 226º Ground Speed: 412 Knots Altitude 29917 ft
10:09 TOC
10:09 Fuel Weight: 19667 Lb
10:16 Wind:112º@007 Knots Heading: 249º Ground Speed: 451 Knots Altitude 39209 ft
10:31 Wind:041º@012 Knots Heading: 250º Ground Speed: 464 Knots Altitude 39179 ft
10:46 Wind:348º@020 Knots Heading: 249º Ground Speed: 457 Knots Altitude 39173 ft
11:01 Wind:053º@014 Knots Heading: 220º Ground Speed: 466 Knots Altitude 39173 ft
11:16 Wind:153º@001 Knots Heading: 227º Ground Speed: 458 Knots Altitude 39143 ft
11:31 Wind:161º@003 Knots Heading: 226º Ground Speed: 457 Knots Altitude 39146 ft
11:46 Wind:139º@027 Knots Heading: 228º Ground Speed: 461 Knots Altitude 39173 ft
11:51 TOD
11:51 Fuel Weight: 11931 Lb
12:01 Wind:090º@003 Knots Heading: 226º Ground Speed: 400 Knots Altitude 21469 ft
12:11 Flaps:1 at 218 Knots
12:11 Flaps:2 at 215 Knots
12:12 Flaps:3 at 199 Knots
12:12 Flaps:4 at 199 Knots
12:14 Flaps:5 at 172 Knots
12:16 Wind:111º@011 Knots Heading: 255º Ground Speed: 209 Knots Altitude 6991 ft
12:24 Flaps:6 at 179 Knots
12:31 Wind:110º@012 Knots Heading: 257º Ground Speed: 199 Knots Altitude 6988 ft
12:38 Gear Down: 167 Knots
12:39 Flaps:7 at 161 Knots
12:40 Flaps:8 at 153 Knots
12:46 Wind:159º@006 Knots Heading: 132º Ground Speed: 140 Knots Altitude 419 ft
12:58 TouchDown:Rate -269 ft/min Speed: 116 Knots
12:58 VATSIM:LEMG 291230Z 11006KT 070V170 9999 SCT030 21/17 Q1017 NOSIG
12:59 Land
12:59 Wind:113º@006 Knots
12:59 Heading: 130º
12:59 Flight Duration: 03:13
12:59 Landing Weight: 139451 Lbs
12:59 POS N36º 40´ 29´´ W004º 29´ 55´´
13:01 Parking brakes on
13:01 Block to Block Duration: 03:26
13:01 Final Fuel: 4045 Lbls
13:01 Spent Fuel: 20529 Lbls
13:01 Flight Length: 1081 NM
13:01 TOD Land Length: 270 NM

Exportar CSV

Powered by Drupal - Modified by Danger4k